createdAt,value
2023-11-18T00:01:33.027Z,2.14
2023-11-18T00:03:59.711Z,2.23
2023-11-18T00:06:26.136Z,2.28
2023-11-18T00:08:52.530Z,2.32
2023-11-18T00:11:19.750Z,2.36
2023-11-18T00:13:46.579Z,2.42
2023-11-18T00:16:17.563Z,2.44
2023-11-18T00:18:44.440Z,2.57
2023-11-18T00:21:11.006Z,2.56
2023-11-18T00:23:37.444Z,2.57
2023-11-18T00:26:04.327Z,2.59
2023-11-18T00:28:30.954Z,2.62
2023-11-18T00:30:57.503Z,2.63
2023-11-18T00:33:24.044Z,2.65
2023-11-18T00:35:50.473Z,2.63
2023-11-18T00:38:17.166Z,2.62
2023-11-18T00:40:43.584Z,2.56
2023-11-18T00:43:09.954Z,2.51
2023-11-18T00:45:36.341Z,2.52
2023-11-18T00:48:02.747Z,2.55
2023-11-18T00:50:29.441Z,2.53
2023-11-18T00:52:55.899Z,2.57
2023-11-18T00:55:22.412Z,2.55
2023-11-18T00:57:48.883Z,2.57
2023-11-18T01:00:22.714Z,2.57
2023-11-18T01:02:50.916Z,2.56
2023-11-18T01:05:17.890Z,2.54
2023-11-18T01:07:44.822Z,2.47
2023-11-18T01:10:12.105Z,2.45
2023-11-18T01:12:38.599Z,2.39
2023-11-18T01:15:05.516Z,2.35
2023-11-18T01:17:32.517Z,2.25
2023-11-18T01:19:59.651Z,2.25
2023-11-18T01:22:26.259Z,2.25
2023-11-18T01:24:52.817Z,2.29
2023-11-18T01:27:20.397Z,2.32
2023-11-18T01:29:47.994Z,2.35
2023-11-18T01:32:15.171Z,2.33
2023-11-18T01:34:41.802Z,2.35
2023-11-18T01:37:08.450Z,2.38
2023-11-18T01:39:35.456Z,2.40
2023-11-18T01:42:04.167Z,2.34
2023-11-18T01:44:31.190Z,2.31
2023-11-18T01:46:59.109Z,2.33
2023-11-18T01:49:28.453Z,2.34
2023-11-18T01:51:55.727Z,2.34
2023-11-18T01:54:24.696Z,2.26
2023-11-18T01:56:53.060Z,2.17
2023-11-18T01:59:19.953Z,2.10
2023-11-18T02:01:52.226Z,2.08
2023-11-18T02:04:20.814Z,2.04
2023-11-18T02:06:49.697Z,2.04
2023-11-18T02:09:20.271Z,2.05
2023-11-18T02:11:57.515Z,2.04
2023-11-18T02:14:27.887Z,2.06
2023-11-18T02:16:59.486Z,2.05
2023-11-18T02:19:27.566Z,2.05
2023-11-18T02:21:55.212Z,2.09
2023-11-18T02:24:34.386Z,2.10
2023-11-18T02:27:01.847Z,2.10
2023-11-18T02:29:37.400Z,2.08
2023-11-18T02:32:27.895Z,2.07
2023-11-18T02:35:11.197Z,2.06
2023-11-18T02:37:50.192Z,2.07
2023-11-18T02:40:38.895Z,2.03
2023-11-18T02:43:06.277Z,2.04
2023-11-18T02:45:34.261Z,2.01
2023-11-18T02:48:01.242Z,1.96
2023-11-18T02:50:31.149Z,1.93
2023-11-18T02:52:57.585Z,1.93
2023-11-18T02:55:25.372Z,1.97
2023-11-18T02:57:54.609Z,2.02
2023-11-18T03:00:24.219Z,2.07
2023-11-18T03:02:53.099Z,2.11
2023-11-18T03:05:20.132Z,2.10
2023-11-18T03:07:50.526Z,2.13
2023-11-18T03:10:23.685Z,2.14
2023-11-18T03:12:51.598Z,2.12
2023-11-18T03:15:18.073Z,2.15
2023-11-18T03:17:45.989Z,2.18
2023-11-18T03:20:17.922Z,2.17
2023-11-18T03:22:48.491Z,2.17
2023-11-18T03:25:15.512Z,2.22
2023-11-18T03:27:42.142Z,2.26
2023-11-18T03:30:09.588Z,2.32
2023-11-18T03:32:38.825Z,2.33
2023-11-18T03:35:10.291Z,2.34
2023-11-18T03:37:39.957Z,2.29
2023-11-18T03:40:14.592Z,2.28
2023-11-18T03:42:42.447Z,2.30
2023-11-18T03:45:10.316Z,2.34
2023-11-18T03:47:37.523Z,2.38
2023-11-18T03:50:04.276Z,2.39
2023-11-18T03:52:30.799Z,2.41
2023-11-18T03:54:57.253Z,2.41
2023-11-18T03:57:23.745Z,2.42
2023-11-18T03:59:50.193Z,2.42
2023-11-18T04:02:16.641Z,2.41
2023-11-18T04:04:43.104Z,2.39
2023-11-18T04:07:09.515Z,2.40
2023-11-18T04:09:35.958Z,2.41
2023-11-18T04:12:04.015Z,2.39
2023-11-18T04:14:30.414Z,2.36
2023-11-18T04:16:58.601Z,2.33
2023-11-18T04:19:25.679Z,2.33
2023-11-18T04:21:52.059Z,2.32
2023-11-18T04:24:18.484Z,2.28
2023-11-18T04:26:44.882Z,2.25
2023-11-18T04:29:11.323Z,2.23
2023-11-18T04:31:38.460Z,2.25
2023-11-18T04:34:07.656Z,2.29
2023-11-18T04:36:34.062Z,2.30
2023-11-18T04:39:00.532Z,2.30
2023-11-18T04:41:27.091Z,2.29
2023-11-18T04:43:54.449Z,2.20
2023-11-18T04:46:20.988Z,2.12
2023-11-18T04:48:48.834Z,2.09
2023-11-18T04:51:15.341Z,2.08
2023-11-18T04:53:41.788Z,2.11
2023-11-18T04:56:11.365Z,2.12
2023-11-18T04:58:40.180Z,2.14
2023-11-18T05:01:06.664Z,2.11
2023-11-18T05:03:33.168Z,2.09
2023-11-18T05:05:59.672Z,2.07
2023-11-18T05:08:26.739Z,2.07
2023-11-18T05:10:53.342Z,2.07
2023-11-18T05:13:20.077Z,2.12
2023-11-18T05:15:47.770Z,2.10
2023-11-18T05:18:15.774Z,2.10
2023-11-18T05:20:43.398Z,2.10
2023-11-18T05:23:12.920Z,2.17
2023-11-18T05:25:44.282Z,2.17
2023-11-18T05:28:10.979Z,2.22
2023-11-18T05:30:38.181Z,2.24
2023-11-18T05:33:08.388Z,2.27
2023-11-18T05:35:36.118Z,2.31
2023-11-18T05:38:04.144Z,2.32
2023-11-18T05:40:31.069Z,2.33
2023-11-18T05:42:58.615Z,2.39
2023-11-18T05:45:33.130Z,2.40
2023-11-18T05:47:59.922Z,2.44
2023-11-18T05:50:27.109Z,2.46
2023-11-18T05:52:54.717Z,2.45
2023-11-18T05:55:21.515Z,2.46
2023-11-18T05:57:48.454Z,2.49
2023-11-18T06:00:20.885Z,2.49
2023-11-18T06:02:52.687Z,2.52
2023-11-18T06:05:19.355Z,2.56
2023-11-18T06:07:45.850Z,2.56
2023-11-18T06:10:13.254Z,2.56
2023-11-18T06:12:41.943Z,2.53
2023-11-18T06:15:10.176Z,2.53
2023-11-18T06:17:36.718Z,2.50
2023-11-18T06:20:07.124Z,2.53
2023-11-18T06:22:33.585Z,2.55
2023-11-18T06:25:00.079Z,2.60
2023-11-18T06:27:26.471Z,2.60
2023-11-18T06:29:55.530Z,2.60
2023-11-18T06:32:22.023Z,2.60
2023-11-18T06:34:50.201Z,2.63
2023-11-18T06:37:16.639Z,2.68
2023-11-18T06:39:45.266Z,2.72
2023-11-18T06:42:12.666Z,2.75
2023-11-18T06:44:39.253Z,2.76
2023-11-18T06:47:07.598Z,2.83
2023-11-18T06:49:37.959Z,2.86
2023-11-18T06:52:04.630Z,2.88
2023-11-18T06:54:34.202Z,2.91
2023-11-18T06:57:00.604Z,2.95
2023-11-18T06:59:27.304Z,2.98
2023-11-18T07:01:53.829Z,3.01
2023-11-18T07:04:20.272Z,3.04
2023-11-18T07:06:46.750Z,3.06
2023-11-18T07:09:21.666Z,3.06
2023-11-18T07:11:49.321Z,3.08
2023-11-18T07:14:16.403Z,3.13
2023-11-18T07:16:44.138Z,3.14
2023-11-18T07:19:20.836Z,3.15
2023-11-18T07:21:48.075Z,3.15
2023-11-18T07:24:14.620Z,3.16
2023-11-18T07:26:40.983Z,3.16
2023-11-18T07:29:10.235Z,3.17
2023-11-18T07:31:37.195Z,3.15
2023-11-18T07:34:06.425Z,3.17
2023-11-18T07:36:34.089Z,3.21
2023-11-18T07:39:04.233Z,3.26
2023-11-18T07:41:33.758Z,3.34
2023-11-18T07:44:01.292Z,3.39
2023-11-18T07:46:29.693Z,3.43
2023-11-18T07:48:56.573Z,3.43
2023-11-18T07:51:24.003Z,3.55
2023-11-18T07:53:50.494Z,3.58
2023-11-18T07:56:17.692Z,3.61
2023-11-18T07:58:47.982Z,3.65
2023-11-18T08:01:17.109Z,3.70
2023-11-18T08:03:44.946Z,3.79
2023-11-18T08:06:13.055Z,3.83
2023-11-18T08:08:39.461Z,3.88
2023-11-18T08:11:06.910Z,3.93
2023-11-18T08:13:33.513Z,4.01
2023-11-18T08:16:00.343Z,4.06
2023-11-18T08:18:28.640Z,4.12
2023-11-18T08:20:55.100Z,4.20
2023-11-18T08:23:21.748Z,4.22
2023-11-18T08:25:48.316Z,4.26
2023-11-18T08:28:14.877Z,4.30
2023-11-18T08:30:41.325Z,4.35
2023-11-18T08:33:10.832Z,4.37
2023-11-18T08:35:38.010Z,4.39
2023-11-18T08:38:05.450Z,4.43
2023-11-18T08:40:31.974Z,4.51
2023-11-18T08:42:58.980Z,4.54
2023-11-18T08:45:30.690Z,4.59
2023-11-18T08:47:57.839Z,4.64
2023-11-18T08:50:25.448Z,4.70
2023-11-18T08:53:00.272Z,4.74
2023-11-18T08:55:42.448Z,4.79
2023-11-18T08:58:21.640Z,4.83
2023-11-18T09:00:53.155Z,4.89
2023-11-18T09:03:37.494Z,4.92
2023-11-18T09:06:07.408Z,4.98
2023-11-18T09:08:36.523Z,5.05
2023-11-18T09:11:08.130Z,5.10
2023-11-18T09:13:39.688Z,5.14
2023-11-18T09:16:10.704Z,5.21
2023-11-18T09:18:42.975Z,5.22
2023-11-18T09:21:15.293Z,5.24
2023-11-18T09:23:43.403Z,5.30
2023-11-18T09:26:11.331Z,5.36
2023-11-18T09:28:38.819Z,5.39
2023-11-18T09:31:06.314Z,5.42
2023-11-18T09:33:34.705Z,5.47
2023-11-18T09:36:08.610Z,5.50
2023-11-18T09:38:36.665Z,5.53
2023-11-18T09:41:05.204Z,5.56
2023-11-18T09:43:46.426Z,5.61
2023-11-18T09:46:14.443Z,5.60
2023-11-18T09:49:00.503Z,5.65
2023-11-18T09:51:31.070Z,5.69
2023-11-18T09:54:02.080Z,5.72
2023-11-18T09:56:46.752Z,5.76
2023-11-18T09:59:45.886Z,5.80
2023-11-18T10:02:13.338Z,5.85
2023-11-18T10:04:40.360Z,5.87
2023-11-18T10:07:12.280Z,5.93
2023-11-18T10:09:39.930Z,6.01
2023-11-18T10:12:09.501Z,6.03
2023-11-18T10:14:36.759Z,6.04
2023-11-18T10:17:09.875Z,6.11
2023-11-18T10:20:00.659Z,6.15
2023-11-18T10:22:30.776Z,6.17
2023-11-18T10:24:58.330Z,6.18
2023-11-18T10:27:28.569Z,6.24
2023-11-18T10:30:20.008Z,6.30
2023-11-18T10:33:08.953Z,6.35
2023-11-18T10:35:38.260Z,6.40
2023-11-18T10:38:07.728Z,6.43
2023-11-18T10:40:37.659Z,6.44
2023-11-18T10:43:10.485Z,6.55
2023-11-18T10:45:41.300Z,6.63
2023-11-18T10:48:09.509Z,6.61
2023-11-18T10:50:35.985Z,6.65
2023-11-18T10:53:04.907Z,6.66
2023-11-18T10:55:43.726Z,6.70
2023-11-18T10:58:10.412Z,6.72
2023-11-18T11:00:56.745Z,6.76
2023-11-18T11:03:24.921Z,6.83
2023-11-18T11:05:53.414Z,6.84
2023-11-18T11:08:29.222Z,6.98
2023-11-18T11:11:08.983Z,7.00
2023-11-18T11:13:38.685Z,7.01
2023-11-18T11:16:08.766Z,7.01
2023-11-18T11:18:40.136Z,7.02
2023-11-18T11:21:17.508Z,7.08
2023-11-18T11:24:13.439Z,7.16
2023-11-18T11:26:59.533Z,7.19
2023-11-18T11:29:59.103Z,7.18
2023-11-18T11:32:33.346Z,7.24
2023-11-18T11:35:09.648Z,7.26
2023-11-18T11:37:37.960Z,7.26
2023-11-18T11:40:08.625Z,7.31
2023-11-18T11:42:35.713Z,7.30
2023-11-18T11:45:03.076Z,7.33
2023-11-18T11:47:37.416Z,7.34
2023-11-18T11:50:22.589Z,7.35
2023-11-18T11:52:59.858Z,7.34
2023-11-18T11:55:37.515Z,7.33
2023-11-18T11:58:04.037Z,7.27
2023-11-18T12:00:35.448Z,7.32
2023-11-18T12:03:05.374Z,7.36
2023-11-18T12:05:34.665Z,7.31
2023-11-18T12:08:01.209Z,7.29
2023-11-18T12:10:29.533Z,7.31
2023-11-18T12:13:18.691Z,7.31
2023-11-18T12:15:57.816Z,7.33
2023-11-18T12:18:25.428Z,7.32
2023-11-18T12:21:04.349Z,7.27
2023-11-18T12:23:32.745Z,7.23
2023-11-18T12:25:59.591Z,7.24
2023-11-18T12:28:36.946Z,7.28
2023-11-18T12:31:14.280Z,7.27
2023-11-18T12:33:56.000Z,7.21
2023-11-18T12:36:31.735Z,7.31
2023-11-18T12:39:20.052Z,7.23
2023-11-18T12:42:07.525Z,7.27
2023-11-18T12:44:40.476Z,7.24
2023-11-18T12:47:19.510Z,7.21
2023-11-18T12:49:51.032Z,7.21
2023-11-18T12:52:19.741Z,7.15
2023-11-18T12:54:51.676Z,7.25
2023-11-18T12:57:23.668Z,7.27
2023-11-18T12:59:51.146Z,7.26
2023-11-18T13:02:24.664Z,7.25
2023-11-18T13:04:53.894Z,7.25
2023-11-18T13:07:22.145Z,7.24
2023-11-18T13:09:49.255Z,7.23
2023-11-18T13:12:16.443Z,7.18
2023-11-18T13:14:43.913Z,7.16
2023-11-18T13:17:12.804Z,7.19
2023-11-18T13:19:40.685Z,7.16
2023-11-18T13:22:10.451Z,7.13
2023-11-18T13:24:40.960Z,7.16
2023-11-18T13:27:09.764Z,7.19
2023-11-18T13:29:38.118Z,7.15
2023-11-18T13:32:05.107Z,7.15
2023-11-18T13:34:38.772Z,7.18
2023-11-18T13:37:07.830Z,7.12
2023-11-18T13:39:35.318Z,7.13
2023-11-18T13:42:32.294Z,7.10
2023-11-18T13:45:10.413Z,7.10
2023-11-18T13:47:37.885Z,7.14
2023-11-18T13:50:09.606Z,7.13
2023-11-18T13:52:37.092Z,7.12
2023-11-18T13:55:07.426Z,7.12
2023-11-18T13:57:33.901Z,7.15
2023-11-18T14:00:00.460Z,7.16
2023-11-18T14:02:29.617Z,7.21
2023-11-18T14:04:56.773Z,7.22
2023-11-18T14:07:25.355Z,7.22
2023-11-18T14:09:55.509Z,7.17
2023-11-18T14:12:23.478Z,7.21
2023-11-18T14:14:50.617Z,7.19
2023-11-18T14:17:17.768Z,7.18
2023-11-18T14:19:44.287Z,7.19
2023-11-18T14:22:11.247Z,7.19
2023-11-18T14:24:37.822Z,7.21
2023-11-18T14:27:05.798Z,7.18
2023-11-18T14:29:32.562Z,7.16
2023-11-18T14:31:59.599Z,7.15
2023-11-18T14:34:26.554Z,7.18
2023-11-18T14:36:52.976Z,7.11
2023-11-18T14:39:23.339Z,7.11
2023-11-18T14:41:51.220Z,7.13
2023-11-18T14:44:19.541Z,7.15
2023-11-18T14:46:46.830Z,7.10
2023-11-18T14:49:13.637Z,7.10
2023-11-18T14:51:41.183Z,7.10
2023-11-18T14:54:07.746Z,7.08
2023-11-18T14:56:36.030Z,7.10
2023-11-18T14:59:02.617Z,7.12
2023-11-18T15:01:30.089Z,7.17
2023-11-18T15:03:57.368Z,7.06
2023-11-18T15:06:27.718Z,6.96
2023-11-18T15:08:54.928Z,7.01
2023-11-18T15:11:24.721Z,7.04
2023-11-18T15:13:53.955Z,7.04
2023-11-18T15:16:20.778Z,7.04
2023-11-18T15:18:53.306Z,7.10
2023-11-18T15:21:20.143Z,7.00
2023-11-18T15:23:46.684Z,6.97
2023-11-18T15:26:13.234Z,7.01
2023-11-18T15:28:39.707Z,7.03
2023-11-18T15:31:06.431Z,6.99
2023-11-18T15:33:33.100Z,7.00
2023-11-18T15:35:59.951Z,7.05
2023-11-18T15:38:26.735Z,7.03
2023-11-18T15:40:54.015Z,7.03
2023-11-18T15:43:20.591Z,7.08
2023-11-18T15:45:47.167Z,7.02
2023-11-18T15:48:15.417Z,7.05
2023-11-18T15:50:42.858Z,7.01
2023-11-18T15:53:09.829Z,7.03
2023-11-18T15:55:39.404Z,6.93
2023-11-18T15:58:05.936Z,7.03
2023-11-18T16:00:32.791Z,7.02
2023-11-18T16:03:02.621Z,7.02
2023-11-18T16:05:34.327Z,7.02
2023-11-18T16:08:02.533Z,6.99
2023-11-18T16:10:29.124Z,6.97
2023-11-18T16:12:56.752Z,7.02
2023-11-18T16:15:24.770Z,7.00
2023-11-18T16:17:51.995Z,7.07
2023-11-18T16:20:23.258Z,7.06
2023-11-18T16:22:51.817Z,7.08
2023-11-18T16:25:24.101Z,7.12
2023-11-18T16:27:52.382Z,7.13
2023-11-18T16:30:25.017Z,7.14
2023-11-18T16:32:55.059Z,7.19
2023-11-18T16:35:22.215Z,7.22
2023-11-18T16:37:52.044Z,7.23
2023-11-18T16:40:24.464Z,7.28
2023-11-18T16:42:53.557Z,7.23
2023-11-18T16:45:24.316Z,7.27
2023-11-18T16:47:52.015Z,7.23
2023-11-18T16:50:20.718Z,7.26
2023-11-18T16:52:48.860Z,7.27
2023-11-18T16:55:15.493Z,7.32
2023-11-18T16:57:42.022Z,7.43
2023-11-18T17:00:23.926Z,7.38
2023-11-18T17:02:55.448Z,7.32
2023-11-18T17:05:23.027Z,7.34
2023-11-18T17:07:53.489Z,7.32
2023-11-18T17:10:19.918Z,7.32
2023-11-18T17:12:47.205Z,7.34
2023-11-18T17:15:16.840Z,7.36
2023-11-18T17:17:45.302Z,7.36
2023-11-18T17:20:13.358Z,7.44
2023-11-18T17:22:40.621Z,7.41
2023-11-18T17:25:10.569Z,7.41
2023-11-18T17:27:37.614Z,7.39
2023-11-18T17:30:14.347Z,7.45
2023-11-18T17:32:44.336Z,7.42
2023-11-18T17:35:14.152Z,7.44
2023-11-18T17:37:41.620Z,7.46
2023-11-18T17:40:12.066Z,7.49
2023-11-18T17:42:39.397Z,7.51
2023-11-18T17:45:07.860Z,7.47
2023-11-18T17:47:42.886Z,7.60
2023-11-18T17:50:12.960Z,7.56
2023-11-18T17:52:44.812Z,7.59
2023-11-18T17:55:16.042Z,7.55
2023-11-18T17:57:44.606Z,7.59
2023-11-18T18:00:21.484Z,7.58
2023-11-18T18:02:48.597Z,7.56
2023-11-18T18:05:15.623Z,7.60
2023-11-18T18:07:42.950Z,7.58
2023-11-18T18:10:10.947Z,7.59
2023-11-18T18:12:37.868Z,7.62
2023-11-18T18:15:08.928Z,7.65
2023-11-18T18:17:37.301Z,7.69
2023-11-18T18:20:09.423Z,7.70
2023-11-18T18:22:39.852Z,7.69
2023-11-18T18:25:07.387Z,7.79
2023-11-18T18:27:34.682Z,7.82
2023-11-18T18:30:01.994Z,7.88
2023-11-18T18:32:28.499Z,7.85
2023-11-18T18:34:54.967Z,7.84
2023-11-18T18:37:23.297Z,7.93
2023-11-18T18:39:52.143Z,7.88
2023-11-18T18:42:18.597Z,7.91
2023-11-18T18:44:45.021Z,7.91
2023-11-18T18:47:11.560Z,7.96
2023-11-18T18:49:37.991Z,7.84
2023-11-18T18:52:04.800Z,7.84
2023-11-18T18:54:31.210Z,7.94
2023-11-18T18:56:57.686Z,7.94
2023-11-18T18:59:24.273Z,7.88
2023-11-18T19:01:51.505Z,7.94
2023-11-18T19:04:18.544Z,8.00
2023-11-18T19:06:45.795Z,7.99
2023-11-18T19:09:15.796Z,8.01
2023-11-18T19:11:42.296Z,8.03
2023-11-18T19:14:08.748Z,8.04
2023-11-18T19:16:35.313Z,8.09
2023-11-18T19:19:01.774Z,8.19
2023-11-18T19:21:30.846Z,8.18
2023-11-18T19:24:00.680Z,8.11
2023-11-18T19:26:27.344Z,8.14
2023-11-18T19:28:53.893Z,8.11
2023-11-18T19:31:20.315Z,8.11
2023-11-18T19:33:46.791Z,8.12
2023-11-18T19:36:13.297Z,8.18
2023-11-18T19:38:40.567Z,8.20
2023-11-18T19:41:07.182Z,8.17
2023-11-18T19:43:37.100Z,8.19
2023-11-18T19:46:03.685Z,8.26
2023-11-18T19:48:32.565Z,8.29
2023-11-18T19:50:59.190Z,8.34
2023-11-18T19:53:25.946Z,8.41
2023-11-18T19:55:53.448Z,8.44
2023-11-18T19:58:22.926Z,8.45
2023-11-18T20:00:51.014Z,8.41
2023-11-18T20:03:17.590Z,8.38
2023-11-18T20:05:44.093Z,8.44
2023-11-18T20:08:10.623Z,8.47
2023-11-18T20:10:37.157Z,8.48
2023-11-18T20:13:04.248Z,8.51
2023-11-18T20:15:30.699Z,8.53
2023-11-18T20:17:57.787Z,8.56
2023-11-18T20:20:24.439Z,8.58
2023-11-18T20:22:55.616Z,8.58
2023-11-18T20:25:23.207Z,8.69
2023-11-18T20:27:49.676Z,8.74
2023-11-18T20:30:16.244Z,8.74
2023-11-18T20:32:44.918Z,8.74
2023-11-18T20:35:12.039Z,8.77
2023-11-18T20:37:39.465Z,8.81
2023-11-18T20:40:08.601Z,8.82
2023-11-18T20:42:36.265Z,8.86
2023-11-18T20:45:02.780Z,8.95
2023-11-18T20:47:29.295Z,8.96
2023-11-18T20:49:55.834Z,8.99
2023-11-18T20:52:22.263Z,9.01
2023-11-18T20:54:48.742Z,9.04
2023-11-18T20:57:15.991Z,9.04
2023-11-18T20:59:43.613Z,9.03
2023-11-18T21:02:10.918Z,9.02
2023-11-18T21:04:37.762Z,9.12
2023-11-18T21:07:04.533Z,9.13
2023-11-18T21:09:31.000Z,9.07
2023-11-18T21:12:17.133Z,9.11
2023-11-18T21:14:49.007Z,9.10
2023-11-18T21:17:15.547Z,9.13
2023-11-18T21:19:42.956Z,9.20
2023-11-18T21:22:09.949Z,9.24
2023-11-18T21:24:37.347Z,9.22
2023-11-18T21:27:03.996Z,9.28
2023-11-18T21:29:30.437Z,9.26
2023-11-18T21:31:57.164Z,9.31
2023-11-18T21:34:23.611Z,9.31
2023-11-18T21:36:50.085Z,9.42
2023-11-18T21:39:19.113Z,9.37
2023-11-18T21:41:45.702Z,9.39
2023-11-18T21:44:12.175Z,9.47
2023-11-18T21:46:38.767Z,9.53
2023-11-18T21:49:10.411Z,9.52
2023-11-18T21:51:37.813Z,9.49
2023-11-18T21:54:04.872Z,9.54
2023-11-18T21:56:35.221Z,9.51
2023-11-18T21:59:04.283Z,9.48
2023-11-18T22:01:31.392Z,9.51
2023-11-18T22:03:58.006Z,9.54
2023-11-18T22:06:25.350Z,9.53
2023-11-18T22:08:52.399Z,9.58
2023-11-18T22:11:20.262Z,9.57
2023-11-18T22:13:50.603Z,9.61
2023-11-18T22:16:17.323Z,9.56
2023-11-18T22:18:44.832Z,9.53
2023-11-18T22:21:14.482Z,9.56
2023-11-18T22:23:40.932Z,9.62
2023-11-18T22:26:08.286Z,9.63
2023-11-18T22:28:34.978Z,9.64
2023-11-18T22:31:01.975Z,9.69
2023-11-18T22:33:30.350Z,9.71
2023-11-18T22:35:56.937Z,9.71
2023-11-18T22:38:23.603Z,9.76
2023-11-18T22:40:50.363Z,9.80
2023-11-18T22:43:16.900Z,9.82
2023-11-18T22:45:44.018Z,9.88
2023-11-18T22:48:10.567Z,9.91
2023-11-18T22:50:39.420Z,9.95
2023-11-18T22:53:09.492Z,9.99
2023-11-18T22:55:39.461Z,10.02
2023-11-18T22:58:06.099Z,10.04
2023-11-18T23:00:35.540Z,10.10
2023-11-18T23:03:03.211Z,10.08
2023-11-18T23:05:29.911Z,10.10
2023-11-18T23:07:59.243Z,10.15
2023-11-18T23:10:26.182Z,10.21
2023-11-18T23:12:53.710Z,10.19
2023-11-18T23:15:22.423Z,10.23
2023-11-18T23:17:50.502Z,10.30
2023-11-18T23:20:17.384Z,10.29
2023-11-18T23:22:43.860Z,10.27
2023-11-18T23:25:10.309Z,10.27
2023-11-18T23:27:37.789Z,10.25
2023-11-18T23:30:07.259Z,10.28
2023-11-18T23:32:34.102Z,10.27
2023-11-18T23:35:01.968Z,10.28
2023-11-18T23:37:28.899Z,10.32
2023-11-18T23:39:55.526Z,10.32
2023-11-18T23:42:22.642Z,10.36
2023-11-18T23:44:49.125Z,10.41
2023-11-18T23:47:15.626Z,10.43
2023-11-18T23:49:42.172Z,10.47
2023-11-18T23:52:08.626Z,10.49
2023-11-18T23:54:37.025Z,10.54
2023-11-18T23:57:03.646Z,10.50
2023-11-18T23:59:30.067Z,10.63
